Time;durP1;ratioP1;P1;durP2;ratioP2;P2;SDS_P1;SDS_P2;PMS_P1;PMS_P2;Temp;Humidity;BMP_temperature;BMP_pressure;BME280_temperature;BME280_humidity;BME280_pressure;Samples;Min_cycle;Max_cycle;Signal;HPM_P1;HPM_P2
2022/06/24 04:32:44;;;;;;;3.80;3.42;;;;;;;23.41;48.67;92946.75;5198254;24;20055;-94
2022/06/24 04:35:13;;;;;;;3.88;3.03;;;;;;;23.35;47.85;92933.16;4800799;24;20055;-96
2022/06/24 04:38:04;;;;;;;6.03;4.20;;;;;;;23.29;47.18;92929.84;4802588;24;20134;-95
2022/06/24 04:40:34;;;;;;;5.43;4.10;;;;;;;23.24;47.17;92930.78;4786274;30;20110;-94
2022/06/24 04:43:02;;;;;;;7.75;3.80;;;;;;;23.08;47.27;92930.06;4773861;29;20027;-96
2022/06/24 04:45:37;;;;;;;5.73;4.20;;;;;;;22.81;47.82;92937.25;4764579;30;20484;-95
2022/06/24 04:48:35;;;;;;;9.95;4.78;;;;;;;22.73;48.52;92936.50;4710960;30;20064;-92
2022/06/24 04:56:06;;;;;;;53.75;10.60;;;;;;;22.61;48.41;92927.84;4804010;29;20077;-95
2022/06/24 04:58:31;;;;;;;37.53;7.70;;;;;;;22.31;49.67;92919.53;4768009;29;20093;-94
2022/06/24 05:00:58;;;;;;;26.40;7.13;;;;;;;22.29;49.51;92939.38;4781420;29;20099;-95
2022/06/24 05:03:25;;;;;;;22.75;7.30;;;;;;;22.29;49.74;92950.41;4772539;29;20038;-94
2022/06/24 05:05:51;;;;;;;9.95;5.25;;;;;;;22.23;50.78;92949.81;4741644;30;20040;-93
2022/06/24 05:08:17;;;;;;;12.63;6.43;;;;;;;22.00;51.13;92957.25;4728554;30;20055;-93
2022/06/24 05:26:30;;;;;;;25.30;9.13;;;;;;;21.85;51.31;92971.69;4795961;29;20059;-94
2022/06/24 05:28:55;;;;;;;32.13;10.05;;;;;;;21.94;51.03;92975.94;4758632;29;20034;-96
2022/06/24 05:31:21;;;;;;;12.48;8.68;;;;;;;22.05;50.52;92981.91;4758198;29;20041;-93
2022/06/24 05:33:47;;;;;;;22.02;13.20;;;;;;;22.20;50.10;92984.69;4765633;29;20037;-94
2022/06/24 05:36:15;;;;;;;21.75;12.38;;;;;;;22.20;49.78;92989.47;4776843;29;20038;-94
2022/06/24 05:38:42;;;;;;;74.63;17.25;;;;;;;22.20;49.84;92986.72;4778195;29;20035;-93
2022/06/24 05:41:08;;;;;;;83.80;20.70;;;;;;;22.20;49.92;92981.94;4800617;29;20030;-94
2022/06/24 05:43:35;;;;;;;71.00;16.77;;;;;;;22.16;50.15;92975.31;4778536;29;20026;-93
2022/06/24 05:46:32;;;;;;;17.02;9.05;;;;;;;22.25;49.97;92985.06;4793692;29;20038;-93
2022/06/24 05:48:57;;;;;;;16.10;7.63;;;;;;;22.28;50.01;92975.72;4762773;30;20127;-92
2022/06/24 05:51:36;;;;;;;12.68;6.32;;;;;;;22.23;50.42;92977.38;4986628;24;20083;-93
2022/06/24 05:57:12;;;;;;;11.23;6.63;;;;;;;22.26;50.85;92984.53;4895923;24;20062;-92
2022/06/24 06:03:36;;;;;;;13.77;9.32;;;;;;;22.38;50.55;92982.16;4808534;30;19925;-95
2022/06/24 06:06:02;;;;;;;9.18;6.97;;;;;;;22.46;50.91;92985.69;4935134;24;20291;-93
2022/06/24 06:08:28;;;;;;;11.77;6.95;;;;;;;22.47;50.75;92979.63;4790217;30;20071;-93
2022/06/24 06:10:55;;;;;;;7.57;6.55;;;;;;;22.45;50.82;92987.69;4823710;24;20056;-94
2022/06/24 06:13:22;;;;;;;7.35;6.18;;;;;;;22.35;51.32;92980.50;4782413;24;20036;-92
2022/06/24 06:15:52;;;;;;;7.60;5.82;;;;;;;22.40;51.14;92985.84;4795564;24;20472;-94
2022/06/24 06:18:17;;;;;;;8.65;6.53;;;;;;;22.44;51.47;92991.00;4802500;24;20074;-91
2022/06/24 06:20:45;;;;;;;7.93;5.93;;;;;;;22.49;51.81;92976.31;4784032;30;20047;-94
2022/06/24 06:23:21;;;;;;;8.40;5.75;;;;;;;22.48;52.13;92980.38;4801600;29;20050;-94
2022/06/24 06:25:46;;;;;;;5.70;5.18;;;;;;;22.40;52.80;92977.59;4794730;29;20107;-92
2022/06/24 06:28:22;;;;;;;13.77;6.78;;;;;;;22.43;52.78;92989.53;4799696;24;20128;-93
2022/06/24 06:31:08;;;;;;;;;;;;;;;;;;;;;
2022/06/24 06:33:33;;;;;;;6.28;5.68;;;;;;;22.32;54.09;92984.34;4787273;24;20123;-89
2022/06/24 06:36:15;;;;;;;18.90;6.28;;;;;;;22.35;54.07;92988.75;4765025;24;20051;-94
2022/06/24 06:41:08;;;;;;;7.03;5.75;;;;;;;22.23;55.27;92991.13;4853137;24;20070;-93
2022/06/24 06:43:34;;;;;;;9.45;6.65;;;;;;;22.27;55.76;92990.78;4796817;29;20077;-93
2022/06/24 06:46:01;;;;;;;8.55;5.75;;;;;;;22.15;56.02;92982.84;4774094;29;20092;-95
2022/06/24 06:48:26;;;;;;;7.38;6.38;;;;;;;22.11;56.55;92987.94;4777761;29;20160;-91
2022/06/24 06:50:56;;;;;;;8.77;5.78;;;;;;;22.17;56.69;92985.03;4761923;29;20062;-93
2022/06/24 06:53:21;;;;;;;7.90;5.82;;;;;;;22.04;57.53;92988.69;4735564;30;20039;-92
2022/06/24 06:55:47;;;;;;;14.73;6.47;;;;;;;22.12;57.41;93000.44;4744827;30;20044;-93
2022/06/24 06:58:22;;;;;;;9.93;6.53;;;;;;;22.12;57.80;92994.19;4758098;30;20035;-94
2022/06/24 07:01:14;;;;;;;9.43;6.20;;;;;;;22.00;58.40;92995.78;4738396;30;20142;-94
2022/06/24 07:03:50;;;;;;;8.85;5.95;;;;;;;21.93;58.80;92980.72;4751258;30;20048;-93
2022/06/24 07:06:31;;;;;;;7.75;5.10;;;;;;;21.88;59.28;92998.09;4746481;30;20038;-94
2022/06/24 07:09:18;;;;;;;11.45;6.63;;;;;;;22.00;58.89;92988.28;4741749;30;20137;-93
2022/06/24 07:11:53;;;;;;;9.93;5.65;;;;;;;21.85;59.73;92991.69;4768288;30;20059;-93
2022/06/24 07:14:19;;;;;;;9.10;4.57;;;;;;;21.93;59.72;92990.97;4738686;30;20430;-94
2022/06/24 07:16:44;;;;;;;8.02;4.53;;;;;;;21.87;60.26;92988.38;4729881;30;20184;-93
2022/06/24 07:19:10;;;;;;;19.85;11.73;;;;;;;21.87;60.15;93004.88;4772225;30;20035;-94
2022/06/24 07:21:35;;;;;;;22.33;13.00;;;;;;;21.80;60.10;93008.34;4772678;24;20059;-95
2022/06/24 07:24:01;;;;;;;45.97;27.95;;;;;;;21.85;60.31;93004.72;4770331;30;20023;-95
2022/06/24 07:26:30;;;;;;;39.55;22.25;;;;;;;21.86;59.85;92998.69;4768929;30;20024;-92
2022/06/24 07:28:57;;;;;;;30.40;18.65;;;;;;;21.78;60.43;93008.91;4751194;30;20059;-94
2022/06/24 07:31:35;;;;;;;25.52;14.70;;;;;;;21.93;59.90;92993.72;4767292;30;20032;-95
2022/06/24 07:34:04;;;;;;;27.50;13.80;;;;;;;21.95;60.00;93007.69;4751580;30;20039;-94
2022/06/24 07:36:30;;;;;;;16.10;10.07;;;;;;;21.93;59.85;92996.47;4739894;30;20050;-94
2022/06/24 07:38:56;;;;;;;16.98;8.63;;;;;;;21.87;60.26;92991.13;4768352;30;20032;-93
2022/06/24 07:42:18;;;;;;;14.43;7.22;;;;;;;21.88;60.16;92989.84;4774151;30;20132;-95
2022/06/24 07:45:02;;;;;;;17.17;6.57;;;;;;;21.93;60.14;92997.22;4761746;30;20504;-94
2022/06/24 07:47:27;;;;;;;23.73;7.25;;;;;;;21.83;60.36;93010.75;4770733;30;20399;-94
2022/06/24 07:49:57;;;;;;;16.75;5.63;;;;;;;21.97;60.23;92994.13;4754770;30;20064;-96
2022/06/24 07:52:23;;;;;;;16.53;4.90;;;;;;;21.98;59.93;92996.31;4770259;30;20032;-96
2022/06/24 07:57:18;;;;;;;13.85;5.15;;;;;;;21.86;60.54;93003.44;4909644;24;20060;-96
2022/06/24 07:59:54;;;;;;;;;;;;;;;21.95;60.19;92999.44;4739629;30;20048;-96
2022/06/24 08:02:20;;;;;;;24.42;7.55;;;;;;;21.88;60.46;92993.34;4754192;30;19922;-96
2022/06/24 08:04:45;;;;;;;17.08;4.75;;;;;;;21.89;60.81;92999.56;4733785;30;20039;-94
2022/06/24 08:09:46;;;;;;;7.13;3.85;;;;;;;21.82;61.27;92998.28;5245871;24;20067;-96
2022/06/24 08:14:43;;;;;;;7.85;4.05;;;;;;;21.92;61.06;92993.00;4800736;24;20111;-96
2022/06/24 08:17:09;;;;;;;5.97;3.95;;;;;;;21.92;61.48;92989.50;4765077;30;20032;-95
2022/06/24 08:19:36;;;;;;;7.13;3.85;;;;;;;21.82;62.05;92981.78;4762014;30;20036;-94
2022/06/24 08:22:14;;;;;;;4.70;3.03;;;;;;;21.92;61.85;92981.25;3944683;30;10000971;-93
2022/06/24 08:24:44;;;;;;;10.73;4.35;;;;;;;21.87;61.81;92974.63;4752819;29;20538;-95
2022/06/24 08:27:10;;;;;;;5.77;3.77;;;;;;;21.84;62.12;92984.72;4534256;30;2514041;-94
2022/06/24 08:29:36;;;;;;;18.27;5.38;;;;;;;21.86;62.89;92978.69;4698199;30;20054;-92
2022/06/24 08:32:02;;;;;;;14.23;4.50;;;;;;;21.74;62.70;92994.75;4708750;30;20048;-93
2022/06/24 08:34:28;;;;;;;7.22;3.72;;;;;;;21.89;62.88;92994.06;4707333;30;20064;-90
2022/06/24 08:37:32;;;;;;;7.65;3.80;;;;;;;21.86;62.33;92987.66;4708088;30;20052;-92
2022/06/24 08:40:15;;;;;;;9.15;4.00;;;;;;;21.88;61.94;92992.59;4713938;30;20049;-92
2022/06/24 08:42:57;;;;;;;9.70;4.82;;;;;;;21.89;61.95;92992.06;4719834;30;20111;-93
2022/06/24 08:45:23;;;;;;;6.00;3.30;;;;;;;21.95;61.70;92988.41;4687766;30;20502;-94
2022/06/24 08:47:49;;;;;;;6.97;3.50;;;;;;;21.82;61.92;92992.78;4693363;30;20200;-94
2022/06/24 08:51:01;;;;;;;12.07;4.80;;;;;;;21.93;61.60;92993.72;4701175;30;20088;-95
2022/06/24 08:53:27;;;;;;;8.30;3.72;;;;;;;21.93;61.57;92988.97;4666988;30;20133;-94
2022/06/24 08:55:58;;;;;;;5.80;3.90;;;;;;;21.94;61.25;92986.94;4653409;30;20260;-96
2022/06/24 08:58:25;;;;;;;9.18;3.40;;;;;;;21.98;61.40;92992.84;4654955;30;20045;-95
2022/06/24 09:00:50;;;;;;;7.35;3.55;;;;;;;22.03;61.34;92987.22;4690104;30;20050;-96
2022/06/24 09:03:16;;;;;;;15.80;5.90;;;;;;;21.94;61.61;92992.44;4669039;30;20056;-95
2022/06/24 09:05:44;;;;;;;20.55;8.43;;;;;;;21.95;61.72;92993.91;4653965;30;20153;-94
2022/06/24 09:11:12;;;;;;;8.80;4.38;;;;;;;21.85;62.19;92993.72;4649493;30;20051;-94
2022/06/24 09:13:52;;;;;;;8.48;4.70;;;;;;;21.94;62.02;92998.69;4630320;30;20572;-95
2022/06/24 09:16:18;;;;;;;9.13;4.40;;;;;;;22.03;61.63;92994.72;4698834;24;20066;-95
2022/06/24 09:18:55;;;;;;;23.63;6.40;;;;;;;22.03;61.86;92989.97;4728462;30;20306;-94
2022/06/24 09:26:42;;;;;;;7.75;3.83;;;;;;;21.92;62.21;92987.50;4787689;24;20064;-95
2022/06/24 09:29:17;;;;;;;9.65;3.45;;;;;;;21.95;62.29;92989.16;4724116;30;20028;-95
2022/06/24 09:39:08;;;;;;;8.20;4.55;;;;;;;22.18;61.81;92994.78;5628193;24;20137;-93
2022/06/24 09:42:01;;;;;;;6.38;3.55;;;;;;;22.16;61.91;92978.81;4768961;30;20058;-94
2022/06/24 09:44:27;;;;;;;6.93;4.00;;;;;;;22.08;61.98;92982.81;4794820;30;20019;-95
2022/06/24 09:47:04;;;;;;;6.15;4.10;;;;;;;22.14;61.56;92978.59;4760047;30;20039;-93
2022/06/24 09:49:30;;;;;;;9.60;5.00;;;;;;;22.16;61.37;92978.06;4728085;30;20040;-96
2022/06/24 09:51:59;;;;;;;10.88;4.53;;;;;;;22.21;61.40;92975.16;4843906;24;20052;-92
2022/06/24 09:54:25;;;;;;;12.88;5.63;;;;;;;22.24;61.46;92970.56;4744604;30;20157;-94
2022/06/24 09:56:54;;;;;;;12.18;6.63;;;;;;;22.14;61.50;92972.38;4722852;30;20040;-94
2022/06/24 10:02:34;;;;;;;7.43;5.32;;;;;;;22.26;61.58;92967.28;4731189;30;20119;-95
2022/06/24 10:05:03;;;;;;;7.57;5.05;;;;;;;22.29;61.46;92957.94;4763187;24;20047;-96
2022/06/24 10:07:30;;;;;;;5.28;4.60;;;;;;;22.22;61.42;92957.34;4747193;30;20064;-94
2022/06/24 10:09:58;;;;;;;7.30;5.60;;;;;;;22.26;61.36;92959.00;4742438;30;20055;-93
2022/06/24 10:12:26;;;;;;;5.95;5.22;;;;;;;22.28;61.14;92954.44;4735796;30;20044;-95
2022/06/24 10:14:52;;;;;;;8.70;6.13;;;;;;;22.25;61.04;92944.50;4803397;24;20055;-95
2022/06/24 10:25:03;;;;;;;7.72;5.05;;;;;;;22.28;61.19;92946.16;4794866;30;20071;-94
2022/06/24 10:28:28;;;;;;;77.22;16.67;;;;;;;22.32;61.10;92951.28;4722081;30;20131;-92
2022/06/24 10:31:05;;;;;;;34.45;7.10;;;;;;;22.39;60.75;92950.59;4717164;30;20057;-92
2022/06/24 10:33:45;;;;;;;;;;;;;;;;;;;;;
2022/06/24 10:51:34;;;;;;;12.70;5.70;;;;;;;22.48;60.56;92947.31;4806177;24;20059;-96
2022/06/24 11:07:51;;;;;;;10.50;4.13;;;;;;;22.57;59.87;92941.25;4934627;24;20075;-96
2022/06/24 11:10:30;;;;;;;7.57;4.30;;;;;;;22.58;59.72;92939.97;4781770;30;20052;-96
2022/06/24 11:13:35;;;;;;;6.90;3.55;;;;;;;22.61;59.38;92940.88;4785731;24;20051;-96
2022/06/24 11:16:48;;;;;;;4.75;3.67;;;;;;;22.63;59.51;92941.06;4803886;24;20055;-96
2022/06/24 13:37:33;;;;;;;7.80;2.30;;;;;;;23.08;57.72;92767.41;4950639;24;20115;-92
2022/06/24 13:39:58;;;;;;;11.18;6.75;;;;;;;23.13;57.37;92763.72;4752801;30;20066;-92
2022/06/24 13:42:24;;;;;;;48.38;41.60;;;;;;;23.23;57.47;92761.81;4764176;30;20381;-93
2022/06/24 13:48:51;;;;;;;10.23;4.78;;;;;;;23.22;56.91;92754.84;4776132;24;20047;-95
2022/06/24 13:52:04;;;;;;;4.07;2.30;;;;;;;23.18;57.02;92756.50;4769265;30;20140;-94
2022/06/24 13:55:43;;;;;;;;;;;;;;;;;;;;;
2022/06/24 14:02:20;;;;;;;;;;;;;;;;;;;;;
2022/06/24 14:06:06;;;;;;;;;;;;;;;;;;;;;
2022/06/24 14:08:56;;;;;;;3.55;2.33;;;;;;;23.12;57.23;92756.72;4635435;30;20058;-94
2022/06/24 14:11:21;;;;;;;25.85;3.10;;;;;;;23.12;57.46;92748.47;4601847;31;20056;-94
2022/06/24 14:13:46;;;;;;;4.70;2.30;;;;;;;23.15;57.69;92741.09;4610823;31;20052;-93
2022/06/24 14:16:12;;;;;;;2.58;2.10;;;;;;;23.13;57.25;92751.97;4611928;31;20546;-94
2022/06/24 14:18:37;;;;;;;5.25;2.15;;;;;;;23.11;57.33;92751.78;4613938;31;20054;-94
2022/06/24 14:21:03;;;;;;;3.05;2.40;;;;;;;23.13;56.86;92749.19;4613771;31;20047;-93
2022/06/24 14:26:14;;;;;;;4.07;1.95;;;;;;;23.16;57.16;92742.56;4616465;31;20058;-94
2022/06/24 14:28:39;;;;;;;2.55;1.88;;;;;;;23.14;57.09;92751.41;4617008;30;20419;-93
2022/06/24 14:31:07;;;;;;;3.58;1.88;;;;;;;23.15;57.10;92741.09;4630051;30;20133;-93
2022/06/24 14:33:33;;;;;;;4.40;1.73;;;;;;;23.21;56.61;92744.38;4624452;30;20177;-93
2022/06/24 14:36:00;;;;;;;3.15;1.80;;;;;;;23.21;56.82;92738.84;4617280;30;20031;-94
2022/06/24 14:41:09;;;;;;;3.17;1.80;;;;;;;23.19;56.87;92735.91;4700918;30;20193;-93
2022/06/24 14:43:34;;;;;;;6.03;1.90;;;;;;;23.17;56.76;92728.19;4713244;30;20037;-92
2022/06/24 14:46:00;;;;;;;1.85;1.58;;;;;;;23.15;56.97;92728.06;4698221;30;20119;-93
2022/06/24 14:48:25;;;;;;;2.03;1.65;;;;;;;23.18;56.82;92728.94;4785213;29;20035;-93
2022/06/24 14:50:51;;;;;;;1.50;1.40;;;;;;;23.15;56.86;92725.28;4755685;30;20479;-93
2022/06/24 14:53:17;;;;;;;1.85;1.45;;;;;;;23.15;56.93;92725.28;4715982;30;20202;-93
2022/06/24 14:55:43;;;;;;;3.33;1.63;;;;;;;23.18;56.96;92717.91;4730668;30;20044;-95
2022/06/24 14:58:08;;;;;;;1.60;1.50;;;;;;;23.19;56.82;92722.13;4745486;30;20052;-94
2022/06/24 15:00:34;;;;;;;2.13;1.90;;;;;;;23.19;56.81;92720.09;4729631;30;20051;-94
2022/06/24 15:03:00;;;;;;;4.93;1.50;;;;;;;23.24;56.86;92718.44;4730551;30;20048;-93
2022/06/24 15:05:26;;;;;;;1.75;1.63;;;;;;;23.22;56.88;92710.72;4730350;30;20119;-93
2022/06/24 15:07:53;;;;;;;4.53;1.52;;;;;;;23.22;56.67;92699.69;4716129;30;20080;-95
2022/06/24 15:10:18;;;;;;;2.47;1.40;;;;;;;23.25;56.88;92704.09;4729995;30;20028;-94
2022/06/24 15:12:44;;;;;;;1.80;1.20;;;;;;;23.25;56.61;92701.34;4730451;30;20131;-94
2022/06/24 15:15:10;;;;;;;1.60;1.50;;;;;;;23.25;56.64;92695.81;4730403;30;20032;-94
2022/06/24 15:17:36;;;;;;;2.17;1.90;;;;;;;23.25;56.62;92697.84;4730716;30;20032;-94
2022/06/24 15:20:01;;;;;;;1.52;1.42;;;;;;;23.27;56.70;92694.53;4730173;30;20582;-94
2022/06/24 15:22:27;;;;;;;3.13;1.55;;;;;;;23.29;56.64;92692.69;4729704;30;20029;-95
2022/06/24 15:24:52;;;;;;;2.10;1.50;;;;;;;23.30;56.38;92696.91;4770786;30;20032;-94
2022/06/24 15:27:18;;;;;;;2.70;1.40;;;;;;;23.26;56.55;92691.03;4785111;29;20066;-94
2022/06/24 15:29:44;;;;;;;1.63;1.10;;;;;;;23.28;56.57;92679.44;4785102;30;20120;-94
2022/06/24 15:32:09;;;;;;;1.60;1.50;;;;;;;23.30;56.56;92685.13;4784224;29;20087;-94
2022/06/24 15:34:35;;;;;;;1.98;1.55;;;;;;;23.27;56.46;92675.94;4770708;30;20119;-93
2022/06/24 15:37:01;;;;;;;2.38;1.63;;;;;;;23.29;56.58;92678.88;4770589;30;20396;-94
2022/06/24 15:39:26;;;;;;;1.42;1.30;;;;;;;23.27;56.65;92669.72;4770022;30;20031;-95
2022/06/24 15:41:52;;;;;;;2.67;1.40;;;;;;;23.27;56.46;92661.44;4784795;29;20494;-94
2022/06/24 15:44:17;;;;;;;3.17;1.75;;;;;;;23.30;56.42;92658.28;4755147;30;20043;-94
2022/06/24 15:46:43;;;;;;;1.50;1.40;;;;;;;23.30;56.44;92654.81;4771517;29;20065;-94
2022/06/24 15:49:09;;;;;;;1.30;1.20;;;;;;;23.28;56.52;92655.34;4754833;30;20062;-94
2022/06/24 15:51:34;;;;;;;1.30;1.20;;;;;;;23.30;56.44;92652.03;4754719;30;20045;-95
2022/06/24 15:54:00;;;;;;;1.70;1.60;;;;;;;23.30;56.33;92652.03;4754775;30;20028;-94
2022/06/24 15:56:25;;;;;;;1.35;1.25;;;;;;;23.31;56.39;92634.94;4769252;30;20035;-95
2022/06/24 15:58:51;;;;;;;5.78;1.30;;;;;;;23.32;56.50;92638.44;4769047;30;20092;-94
2022/06/24 16:01:17;;;;;;;2.05;1.48;;;;;;;23.33;56.53;92631.63;4768688;30;20511;-95
2022/06/24 16:03:42;;;;;;;1.63;1.40;;;;;;;23.31;56.66;92621.16;4740211;30;20058;-94
2022/06/24 16:06:07;;;;;;;1.30;1.20;;;;;;;23.33;56.15;92615.81;4752899;30;20039;-95
2022/06/24 16:08:35;;;;;;;2.78;1.25;;;;;;;23.29;56.43;92618.22;4756000;30;20472;-94
2022/06/24 16:11:01;;;;;;;1.50;1.40;;;;;;;23.29;56.37;92607.19;4752537;30;20480;-94
2022/06/24 16:13:27;;;;;;;1.55;1.45;;;;;;;23.30;56.80;92607.91;4766070;30;20086;-94
2022/06/24 16:15:54;;;;;;;1.52;1.40;;;;;;;23.30;56.33;92608.66;4769473;30;20158;-94
2022/06/24 16:18:20;;;;;;;1.42;1.33;;;;;;;23.31;56.36;92607.34;4755023;30;20477;-94
2022/06/24 16:20:45;;;;;;;1.58;1.17;;;;;;;23.31;56.46;92604.59;4727807;30;20623;-95
2022/06/24 16:23:11;;;;;;;2.45;1.40;;;;;;;23.32;56.14;92610.84;4746096;30;20047;-94
2022/06/24 16:31:05;;;;;;;1.48;1.25;;;;;;;23.33;56.25;92587.50;4753785;29;20093;-94
2022/06/24 16:33:31;;;;;;;1.45;1.35;;;;;;;23.31;56.30;92579.03;4736848;30;20032;-94
2022/06/24 16:35:56;;;;;;;1.48;1.38;;;;;;;23.32;56.41;92575.72;4752000;30;20032;-95
2022/06/24 16:38:21;;;;;;;1.40;1.30;;;;;;;23.32;56.33;92566.72;4736792;30;20032;-95
2022/06/24 16:40:47;;;;;;;4.30;1.27;;;;;;;23.29;56.22;92573.34;4751671;30;20040;-94
2022/06/24 16:43:15;;;;;;;1.85;1.55;;;;;;;23.29;56.12;92562.31;4760289;30;20028;-94
2022/06/24 16:45:44;;;;;;;1.38;1.27;;;;;;;23.27;56.23;92562.16;4769486;29;20032;-94
2022/06/24 16:48:10;;;;;;;1.40;1.30;;;;;;;23.24;56.21;92552.97;4754935;30;20442;-94
2022/06/24 16:50:35;;;;;;;4.05;1.55;;;;;;;23.24;56.30;92550.22;4754813;30;20051;-94
2022/06/24 16:53:01;;;;;;;2.03;1.83;;;;;;;23.22;56.49;92561.81;4754512;30;20038;-94
2022/06/24 16:55:27;;;;;;;1.70;1.33;;;;;;;23.22;56.42;92564.56;4769163;30;20094;-94
2022/06/24 16:57:53;;;;;;;2.67;1.45;;;;;;;23.23;56.57;92584.59;4754094;30;20031;-93
2022/06/24 17:00:19;;;;;;;2.20;1.58;;;;;;;23.21;56.26;92587.19;4769185;29;20089;-93
2022/06/24 17:02:44;;;;;;;2.10;1.40;;;;;;;23.21;56.61;92592.72;4767403;30;20479;-95
2022/06/24 17:05:10;;;;;;;1.50;1.40;;;;;;;23.19;56.32;92590.50;4736772;30;20035;-94
2022/06/24 17:07:36;;;;;;;2.58;1.58;;;;;;;23.19;56.44;92581.50;4751311;30;20082;-94
2022/06/24 17:10:02;;;;;;;2.22;1.50;;;;;;;23.19;56.32;92582.25;4745004;30;20643;-95
2022/06/24 17:12:28;;;;;;;2.00;1.80;;;;;;;23.17;56.40;92587.59;4754166;30;20031;-94
2022/06/24 17:14:53;;;;;;;4.30;1.95;;;;;;;23.19;56.26;92570.47;4769617;30;20062;-95
2022/06/24 17:17:19;;;;;;;1.95;1.67;;;;;;;23.18;56.34;92571.78;4753821;30;20092;-94
2022/06/24 17:19:44;;;;;;;2.20;2.00;;;;;;;23.18;56.31;92580.78;4769035;30;20043;-94
2022/06/24 17:22:10;;;;;;;1.85;1.63;;;;;;;23.18;56.35;92593.81;4753920;30;20035;-94
2022/06/24 17:24:35;;;;;;;1.73;1.63;;;;;;;23.17;56.03;92587.59;4768696;30;20377;-94
2022/06/24 17:27:01;;;;;;;2.25;1.77;;;;;;;23.16;56.53;92590.94;4753752;30;20043;-93
2022/06/24 17:29:26;;;;;;;1.65;1.35;;;;;;;23.17;56.61;92587.59;4769149;30;20094;-94
2022/06/24 17:31:52;;;;;;;2.53;2.00;;;;;;;23.17;56.64;92578.56;4754571;30;20047;-93
2022/06/24 17:34:17;;;;;;;2.20;2.00;;;;;;;23.16;56.35;92599.94;4743122;30;20038;-96
2022/06/24 17:36:43;;;;;;;2.25;1.70;;;;;;;23.15;56.62;92615.00;4787600;30;20035;-95
2022/06/24 17:39:08;;;;;;;1.65;1.55;;;;;;;23.15;56.43;92637.06;4755715;30;20031;-93
2022/06/24 17:41:33;;;;;;;3.25;2.17;;;;;;;23.15;56.50;92641.84;4769594;30;20061;-96
2022/06/24 17:43:59;;;;;;;2.08;1.88;;;;;;;23.14;56.44;92660.41;4766940;30;20036;-95
2022/06/24 17:46:24;;;;;;;1.92;1.83;;;;;;;23.14;56.73;92662.44;4776882;30;20187;-94
2022/06/24 17:48:50;;;;;;;6.07;1.80;;;;;;;23.15;56.85;92650.13;4749177;30;20083;-95
2022/06/24 17:51:16;;;;;;;3.63;1.90;;;;;;;23.15;56.71;92655.63;4753554;30;20035;-94
2022/06/24 17:53:41;;;;;;;4.15;1.60;;;;;;;23.13;56.73;92660.97;4753863;30;20036;-90
2022/06/24 17:56:07;;;;;;;3.17;2.00;;;;;;;23.12;56.88;92665.03;4754366;30;20085;-92
2022/06/24 17:58:32;;;;;;;2.17;1.85;;;;;;;23.11;56.61;92699.41;4738612;30;20121;-93
2022/06/24 18:00:57;;;;;;;2.88;1.88;;;;;;;23.11;56.56;92704.91;4753012;30;20758;-92
2022/06/24 18:03:23;;;;;;;2.95;1.70;;;;;;;23.11;56.31;92722.19;4750726;30;20388;-93
2022/06/24 18:05:48;;;;;;;1.95;1.80;;;;;;;23.10;56.72;92764.84;4765916;30;20377;-90
2022/06/24 18:08:14;;;;;;;1.83;1.42;;;;;;;23.11;56.81;92782.84;4735854;30;20032;-92
2022/06/24 18:10:41;;;;;;;4.07;1.58;;;;;;;23.12;56.82;92792.56;4775940;30;20036;-94
2022/06/24 18:13:07;;;;;;;1.92;1.73;;;;;;;23.11;56.81;92793.88;4754050;30;20036;-91
2022/06/24 18:15:32;;;;;;;3.10;2.03;;;;;;;23.11;57.08;92795.88;4753600;30;20081;-93
2022/06/24 18:17:58;;;;;;;2.28;2.08;;;;;;;23.09;56.98;92793.69;4738746;30;20243;-93
2022/06/24 18:20:24;;;;;;;2.20;1.98;;;;;;;23.08;56.76;92802.50;4738834;30;20042;-92
2022/06/24 18:22:50;;;;;;;2.97;2.00;;;;;;;23.09;57.06;92809.50;4753758;30;20078;-90
2022/06/24 18:25:15;;;;;;;2.20;2.00;;;;;;;23.07;57.15;92799.03;4768823;30;20051;-93
2022/06/24 18:27:41;;;;;;;2.90;1.98;;;;;;;23.08;57.11;92794.25;4738469;30;20574;-92
2022/06/24 18:30:09;;;;;;;2.20;1.90;;;;;;;23.07;56.86;92779.72;4739061;30;20472;-93
2022/06/24 18:32:34;;;;;;;2.45;1.98;;;;;;;23.06;57.17;92752.72;4743687;30;20082;-91
2022/06/24 18:34:59;;;;;;;3.20;2.35;;;;;;;23.06;57.02;92731.38;4753304;30;20044;-92
2022/06/24 18:37:25;;;;;;;3.03;2.08;;;;;;;23.06;57.21;92725.13;4738878;30;20040;-94
2022/06/24 18:39:50;;;;;;;2.70;2.08;;;;;;;23.05;57.11;92718.16;4753165;30;20024;-91
2022/06/24 18:42:16;;;;;;;2.83;2.50;;;;;;;23.06;57.31;92703.81;4739081;30;20101;-93
2022/06/24 18:44:41;;;;;;;2.75;2.35;;;;;;;23.04;57.23;92692.63;4753386;30;20036;-92
2022/06/24 18:47:09;;;;;;;6.05;2.17;;;;;;;23.03;57.14;92696.66;4752477;30;20038;-93
2022/06/24 18:49:35;;;;;;;2.15;1.95;;;;;;;23.02;56.97;92688.94;4753259;30;20106;-91
2022/06/24 18:52:00;;;;;;;3.80;2.50;;;;;;;23.02;57.02;92686.94;4752966;30;20024;-91
2022/06/24 18:54:26;;;;;;;2.88;2.20;;;;;;;23.02;57.06;92686.94;4738054;30;20024;-89
2022/06/24 18:56:52;;;;;;;2.03;1.83;;;;;;;23.02;57.06;92686.94;4738604;30;20089;-92
2022/06/24 18:59:18;;;;;;;2.25;2.05;;;;;;;23.02;56.92;92695.19;4752067;30;20020;-91
2022/06/24 19:01:43;;;;;;;2.60;2.35;;;;;;;23.01;57.12;92696.50;4731199;30;20037;-92
2022/06/24 19:04:09;;;;;;;3.25;2.00;;;;;;;23.02;57.19;92713.75;4732023;30;20024;-90
2022/06/24 19:06:34;;;;;;;2.45;2.25;;;;;;;23.01;57.07;92713.03;4747107;30;20033;-93
2022/06/24 19:09:01;;;;;;;2.53;2.33;;;;;;;23.02;56.99;92725.53;4746736;30;20036;-94
2022/06/24 19:11:26;;;;;;;2.40;2.20;;;;;;;23.01;57.31;92721.28;4747885;30;20347;-92
2022/06/24 19:13:51;;;;;;;2.40;2.20;;;;;;;23.01;57.24;92726.06;4767291;30;20067;-91
2022/06/24 19:16:17;;;;;;;3.22;2.38;;;;;;;23.00;57.07;92732.88;4753037;30;20089;-90
2022/06/24 19:21:27;;;;;;;2.38;2.03;;;;;;;22.99;57.01;92748.69;4767818;30;20129;-93
2022/06/24 19:23:52;;;;;;;3.40;1.80;;;;;;;22.98;57.13;92747.22;4752035;30;20074;-90
2022/06/24 19:26:18;;;;;;;2.28;1.98;;;;;;;22.98;56.84;92758.25;4752597;30;20032;-94
2022/06/24 19:28:43;;;;;;;3.05;1.98;;;;;;;22.99;57.31;92758.97;4752061;30;20023;-91
2022/06/24 19:31:08;;;;;;;2.20;2.00;;;;;;;22.99;57.16;92773.50;4737312;30;20072;-91
2022/06/24 19:33:34;;;;;;;2.85;2.25;;;;;;;22.99;57.39;92786.53;4752450;30;20035;-91
2022/06/24 19:35:59;;;;;;;2.40;2.20;;;;;;;22.97;57.30;92787.09;4752082;30;20028;-92
2022/06/24 19:38:26;;;;;;;3.13;2.03;;;;;;;22.97;57.15;92792.59;4752294;30;20032;-93
2022/06/24 19:40:51;;;;;;;2.20;2.00;;;;;;;22.99;57.05;92794.81;4752154;30;20038;-92
2022/06/24 19:43:17;;;;;;;2.92;1.98;;;;;;;22.97;57.21;92797.38;4752120;30;20479;-92
2022/06/24 19:45:42;;;;;;;2.22;2.03;;;;;;;22.96;56.92;92802.16;4752402;30;20024;-92
2022/06/24 19:48:08;;;;;;;2.88;2.28;;;;;;;22.96;57.17;92804.19;4751752;30;20036;-93
2022/06/24 19:50:33;;;;;;;2.35;2.08;;;;;;;22.96;57.08;92799.41;4769045;30;20094;-93
2022/06/24 19:52:59;;;;;;;3.35;2.35;;;;;;;22.97;57.11;92797.38;4769757;30;20023;-91
2022/06/24 19:55:24;;;;;;;2.38;2.10;;;;;;;22.94;57.10;92796.50;4769694;30;20031;-94
2022/06/24 19:57:49;;;;;;;2.67;2.10;;;;;;;22.95;57.09;92803.44;4755577;30;20038;-92
2022/06/24 20:00:15;;;;;;;2.17;1.98;;;;;;;22.95;57.10;92803.44;4753586;29;20060;-90
2022/06/24 20:08:08;;;;;;;2.03;1.85;;;;;;;22.94;57.16;92813.03;4749062;30;20524;-92
2022/06/24 20:10:34;;;;;;;2.55;1.92;;;;;;;22.94;56.98;92818.56;4784679;29;20035;-93
2022/06/24 20:12:59;;;;;;;2.47;1.88;;;;;;;22.95;56.96;92820.00;4769936;29;20039;-93
2022/06/24 20:15:25;;;;;;;2.00;1.80;;;;;;;22.94;57.06;92820.56;4768606;30;20039;-90
2022/06/24 20:17:50;;;;;;;1.95;1.80;;;;;;;22.93;57.01;92833.63;4754750;30;20037;-91
2022/06/24 20:20:16;;;;;;;2.40;2.17;;;;;;;22.93;57.05;92830.88;4754133;30;20043;-91
2022/06/24 20:22:48;;;;;;;2.10;1.90;;;;;;;22.93;56.90;92836.38;4768567;30;20400;-92
2022/06/24 20:25:14;;;;;;;2.20;2.00;;;;;;;22.93;56.93;92841.16;4769927;30;20118;-90
2022/06/24 20:27:41;;;;;;;2.05;1.85;;;;;;;22.94;57.10;92839.88;4754350;30;20039;-93
2022/06/24 20:30:07;;;;;;;1.98;1.77;;;;;;;22.92;56.89;92839.69;4768722;29;20113;-91
2022/06/24 20:32:33;;;;;;;3.50;2.05;;;;;;;22.92;57.14;92843.19;4769219;30;20104;-91
2022/06/24 20:34:59;;;;;;;2.00;1.70;;;;;;;22.93;57.02;92855.66;4754434;30;20035;-92
2022/06/24 20:37:24;;;;;;;2.00;1.80;;;;;;;22.93;56.82;92860.44;4754166;30;20023;-92